sensor_id;sensor_type;location;lat;lon;timestamp;P1;durP1;ratioP1;P2;durP2;ratioP2
70342;SDS011;57767;42.068;24.752;2022-12-11T00:00:58;58.38;;;30.98;;
70342;SDS011;57767;42.068;24.752;2022-12-11T00:02:00;54.95;;;30.83;;
70342;SDS011;57767;42.068;24.752;2022-12-11T00:03:02;49.88;;;30.40;;
70342;SDS011;57767;42.068;24.752;2022-12-11T00:04:04;58.88;;;32.05;;
70342;SDS011;57767;42.068;24.752;2022-12-11T00:05:06;69.45;;;32.65;;
70342;SDS011;57767;42.068;24.752;2022-12-11T00:06:10;56.95;;;32.50;;
70342;SDS011;57767;42.068;24.752;2022-12-11T00:07:13;55.45;;;31.33;;
70342;SDS011;57767;42.068;24.752;2022-12-11T00:08:15;60.88;;;31.40;;
70342;SDS011;57767;42.068;24.752;2022-12-11T00:09:17;57.25;;;31.02;;
70342;SDS011;57767;42.068;24.752;2022-12-11T00:10:19;62.88;;;31.33;;
70342;SDS011;57767;42.068;24.752;2022-12-11T00:11:21;60.17;;;31.52;;
70342;SDS011;57767;42.068;24.752;2022-12-11T00:12:23;62.53;;;31.90;;
70342;SDS011;57767;42.068;24.752;2022-12-11T00:13:25;59.08;;;31.27;;
70342;SDS011;57767;42.068;24.752;2022-12-11T00:14:28;57.17;;;30.50;;
70342;SDS011;57767;42.068;24.752;2022-12-11T00:15:29;60.35;;;31.17;;
70342;SDS011;57767;42.068;24.752;2022-12-11T00:16:31;62.55;;;32.42;;
70342;SDS011;57767;42.068;24.752;2022-12-11T00:17:33;65.72;;;32.90;;
70342;SDS011;57767;42.068;24.752;2022-12-11T00:18:35;58.85;;;32.90;;
70342;SDS011;57767;42.068;24.752;2022-12-11T00:19:37;68.18;;;34.53;;
70342;SDS011;57767;42.068;24.752;2022-12-11T00:20:38;68.55;;;32.58;;
70342;SDS011;57767;42.068;24.752;2022-12-11T00:21:40;70.63;;;33.38;;
70342;SDS011;57767;42.068;24.752;2022-12-11T00:22:42;64.15;;;32.35;;
70342;SDS011;57767;42.068;24.752;2022-12-11T00:23:44;64.80;;;32.05;;
70342;SDS011;57767;42.068;24.752;2022-12-11T00:24:46;57.35;;;31.42;;
70342;SDS011;57767;42.068;24.752;2022-12-11T00:25:47;65.95;;;31.38;;
70342;SDS011;57767;42.068;24.752;2022-12-11T00:26:49;62.47;;;32.08;;
70342;SDS011;57767;42.068;24.752;2022-12-11T00:27:51;62.70;;;33.28;;
70342;SDS011;57767;42.068;24.752;2022-12-11T00:28:54;57.75;;;32.10;;
70342;SDS011;57767;42.068;24.752;2022-12-11T00:29:57;54.17;;;29.98;;
70342;SDS011;57767;42.068;24.752;2022-12-11T00:31:01;62.80;;;31.73;;
70342;SDS011;57767;42.068;24.752;2022-12-11T00:32:07;61.72;;;31.88;;
70342;SDS011;57767;42.068;24.752;2022-12-11T00:33:09;60.40;;;32.65;;
70342;SDS011;57767;42.068;24.752;2022-12-11T00:34:11;63.42;;;33.10;;
70342;SDS011;57767;42.068;24.752;2022-12-11T00:35:13;64.55;;;33.53;;
70342;SDS011;57767;42.068;24.752;2022-12-11T00:36:16;62.10;;;32.17;;
70342;SDS011;57767;42.068;24.752;2022-12-11T00:37:23;68.25;;;32.30;;
70342;SDS011;57767;42.068;24.752;2022-12-11T00:38:25;59.58;;;30.67;;
70342;SDS011;57767;42.068;24.752;2022-12-11T00:39:26;54.38;;;31.02;;
70342;SDS011;57767;42.068;24.752;2022-12-11T00:40:28;53.13;;;29.88;;
70342;SDS011;57767;42.068;24.752;2022-12-11T00:41:30;54.42;;;28.45;;
70342;SDS011;57767;42.068;24.752;2022-12-11T00:42:32;53.13;;;28.00;;
70342;SDS011;57767;42.068;24.752;2022-12-11T00:43:34;48.13;;;28.63;;
70342;SDS011;57767;42.068;24.752;2022-12-11T00:44:36;52.33;;;26.63;;
70342;SDS011;57767;42.068;24.752;2022-12-11T00:45:39;44.13;;;27.05;;
70342;SDS011;57767;42.068;24.752;2022-12-11T00:46:42;63.40;;;38.95;;
70342;SDS011;57767;42.068;24.752;2022-12-11T00:47:44;81.05;;;43.38;;
70342;SDS011;57767;42.068;24.752;2022-12-11T00:48:45;83.55;;;45.90;;
70342;SDS011;57767;42.068;24.752;2022-12-11T00:49:50;74.85;;;45.40;;
70342;SDS011;57767;42.068;24.752;2022-12-11T00:50:51;76.50;;;45.33;;
70342;SDS011;57767;42.068;24.752;2022-12-11T00:51:53;88.63;;;45.55;;
70342;SDS011;57767;42.068;24.752;2022-12-11T00:52:55;86.45;;;45.15;;
70342;SDS011;57767;42.068;24.752;2022-12-11T00:53:56;76.75;;;43.05;;
70342;SDS011;57767;42.068;24.752;2022-12-11T00:54:58;79.15;;;45.47;;
70342;SDS011;57767;42.068;24.752;2022-12-11T00:56:00;88.45;;;44.97;;
70342;SDS011;57767;42.068;24.752;2022-12-11T00:57:02;84.55;;;44.83;;
70342;SDS011;57767;42.068;24.752;2022-12-11T00:58:03;85.45;;;47.95;;
70342;SDS011;57767;42.068;24.752;2022-12-11T00:59:06;88.18;;;49.42;;
70342;SDS011;57767;42.068;24.752;2022-12-11T01:00:08;92.45;;;50.80;;
70342;SDS011;57767;42.068;24.752;2022-12-11T01:01:17;99.38;;;51.53;;
70342;SDS011;57767;42.068;24.752;2022-12-11T01:02:21;121.88;;;57.22;;
70342;SDS011;57767;42.068;24.752;2022-12-11T01:03:23;95.53;;;53.63;;
70342;SDS011;57767;42.068;24.752;2022-12-11T01:04:25;105.07;;;54.10;;
70342;SDS011;57767;42.068;24.752;2022-12-11T01:05:27;104.03;;;53.85;;
70342;SDS011;57767;42.068;24.752;2022-12-11T01:06:28;106.68;;;54.45;;
70342;SDS011;57767;42.068;24.752;2022-12-11T01:07:30;103.90;;;53.35;;
70342;SDS011;57767;42.068;24.752;2022-12-11T01:08:32;97.03;;;50.58;;
70342;SDS011;57767;42.068;24.752;2022-12-11T01:09:38;83.25;;;49.80;;
70342;SDS011;57767;42.068;24.752;2022-12-11T01:11:06;99.18;;;49.22;;
70342;SDS011;57767;42.068;24.752;2022-12-11T01:16:16;91.95;;;47.78;;
70342;SDS011;57767;42.068;24.752;2022-12-11T01:17:18;94.28;;;50.42;;
70342;SDS011;57767;42.068;24.752;2022-12-11T01:18:20;103.05;;;49.72;;
70342;SDS011;57767;42.068;24.752;2022-12-11T01:19:22;99.30;;;50.70;;
70342;SDS011;57767;42.068;24.752;2022-12-11T01:20:24;85.88;;;42.50;;
70342;SDS011;57767;42.068;24.752;2022-12-11T01:21:26;75.78;;;39.42;;
70342;SDS011;57767;42.068;24.752;2022-12-11T01:22:28;74.50;;;38.50;;
70342;SDS011;57767;42.068;24.752;2022-12-11T01:23:30;78.55;;;40.20;;
70342;SDS011;57767;42.068;24.752;2022-12-11T01:24:32;80.60;;;40.60;;
70342;SDS011;57767;42.068;24.752;2022-12-11T01:25:34;84.20;;;45.13;;
70342;SDS011;57767;42.068;24.752;2022-12-11T01:26:38;82.55;;;41.10;;
70342;SDS011;57767;42.068;24.752;2022-12-11T01:27:40;74.50;;;41.40;;
70342;SDS011;57767;42.068;24.752;2022-12-11T01:28:42;75.38;;;40.60;;
70342;SDS011;57767;42.068;24.752;2022-12-11T01:29:44;73.43;;;41.28;;
70342;SDS011;57767;42.068;24.752;2022-12-11T01:30:45;75.68;;;40.33;;
70342;SDS011;57767;42.068;24.752;2022-12-11T01:31:47;67.30;;;39.08;;
70342;SDS011;57767;42.068;24.752;2022-12-11T01:32:49;66.53;;;39.45;;
70342;SDS011;57767;42.068;24.752;2022-12-11T01:33:52;61.55;;;38.63;;
70342;SDS011;57767;42.068;24.752;2022-12-11T01:34:55;69.72;;;39.00;;
70342;SDS011;57767;42.068;24.752;2022-12-11T01:35:57;64.05;;;38.45;;
70342;SDS011;57767;42.068;24.752;2022-12-11T01:36:58;59.40;;;36.58;;
70342;SDS011;57767;42.068;24.752;2022-12-11T01:38:00;67.10;;;38.65;;
70342;SDS011;57767;42.068;24.752;2022-12-11T01:39:02;57.75;;;34.95;;
70342;SDS011;57767;42.068;24.752;2022-12-11T01:40:04;63.35;;;35.28;;
70342;SDS011;57767;42.068;24.752;2022-12-11T01:41:07;59.50;;;36.42;;
70342;SDS011;57767;42.068;24.752;2022-12-11T01:42:09;55.67;;;34.47;;
70342;SDS011;57767;42.068;24.752;2022-12-11T01:43:17;55.58;;;33.08;;
70342;SDS011;57767;42.068;24.752;2022-12-11T01:46:31;66.00;;;35.35;;
70342;SDS011;57767;42.068;24.752;2022-12-11T01:47:34;59.90;;;34.95;;
70342;SDS011;57767;42.068;24.752;2022-12-11T01:48:36;60.85;;;34.78;;
70342;SDS011;57767;42.068;24.752;2022-12-11T01:49:42;62.67;;;34.42;;
70342;SDS011;57767;42.068;24.752;2022-12-11T01:51:05;58.15;;;33.45;;
70342;SDS011;57767;42.068;24.752;2022-12-11T01:52:07;61.28;;;32.97;;
70342;SDS011;57767;42.068;24.752;2022-12-11T01:53:20;57.95;;;32.95;;
70342;SDS011;57767;42.068;24.752;2022-12-11T01:54:25;58.90;;;31.63;;
70342;SDS011;57767;42.068;24.752;2022-12-11T01:55:28;53.58;;;30.95;;
70342;SDS011;57767;42.068;24.752;2022-12-11T01:56:30;55.83;;;31.98;;
70342;SDS011;57767;42.068;24.752;2022-12-11T01:57:35;61.13;;;31.63;;
70342;SDS011;57767;42.068;24.752;2022-12-11T01:58:41;51.40;;;29.48;;
70342;SDS011;57767;42.068;24.752;2022-12-11T01:59:47;47.00;;;28.20;;
70342;SDS011;57767;42.068;24.752;2022-12-11T02:00:50;51.50;;;29.25;;
70342;SDS011;57767;42.068;24.752;2022-12-11T02:01:57;47.38;;;25.00;;
70342;SDS011;57767;42.068;24.752;2022-12-11T02:02:59;48.65;;;26.40;;
70342;SDS011;57767;42.068;24.752;2022-12-11T02:04:01;44.20;;;28.13;;
70342;SDS011;57767;42.068;24.752;2022-12-11T02:05:04;48.53;;;27.15;;
70342;SDS011;57767;42.068;24.752;2022-12-11T02:06:26;44.88;;;25.15;;
70342;SDS011;57767;42.068;24.752;2022-12-11T02:07:47;41.97;;;24.67;;
70342;SDS011;57767;42.068;24.752;2022-12-11T02:08:52;50.47;;;24.80;;
70342;SDS011;57767;42.068;24.752;2022-12-11T02:09:54;48.28;;;25.38;;
70342;SDS011;57767;42.068;24.752;2022-12-11T02:11:14;42.47;;;24.90;;
70342;SDS011;57767;42.068;24.752;2022-12-11T02:12:33;44.90;;;25.25;;
70342;SDS011;57767;42.068;24.752;2022-12-11T02:13:43;39.42;;;24.85;;
70342;SDS011;57767;42.068;24.752;2022-12-11T02:20:06;39.70;;;23.65;;
70342;SDS011;57767;42.068;24.752;2022-12-11T02:21:24;38.53;;;23.02;;
70342;SDS011;57767;42.068;24.752;2022-12-11T02:24:14;36.03;;;23.25;;
70342;SDS011;57767;42.068;24.752;2022-12-11T02:29:19;45.20;;;25.95;;
70342;SDS011;57767;42.068;24.752;2022-12-11T02:30:26;51.60;;;27.58;;
70342;SDS011;57767;42.068;24.752;2022-12-11T02:32:55;38.85;;;26.35;;
70342;SDS011;57767;42.068;24.752;2022-12-11T02:35:33;42.88;;;25.10;;
70342;SDS011;57767;42.068;24.752;2022-12-11T02:36:42;47.55;;;25.50;;
70342;SDS011;57767;42.068;24.752;2022-12-11T02:37:49;43.42;;;25.83;;
70342;SDS011;57767;42.068;24.752;2022-12-11T02:38:56;50.08;;;26.60;;
70342;SDS011;57767;42.068;24.752;2022-12-11T02:40:01;42.70;;;26.45;;
70342;SDS011;57767;42.068;24.752;2022-12-11T02:41:05;45.85;;;25.83;;
70342;SDS011;57767;42.068;24.752;2022-12-11T02:42:08;44.40;;;25.77;;
70342;SDS011;57767;42.068;24.752;2022-12-11T02:43:13;44.00;;;26.17;;
70342;SDS011;57767;42.068;24.752;2022-12-11T02:44:21;44.40;;;25.38;;
70342;SDS011;57767;42.068;24.752;2022-12-11T02:45:27;41.60;;;24.70;;
70342;SDS011;57767;42.068;24.752;2022-12-11T02:46:30;41.38;;;24.33;;
70342;SDS011;57767;42.068;24.752;2022-12-11T02:47:35;43.38;;;25.20;;
70342;SDS011;57767;42.068;24.752;2022-12-11T02:48:39;42.20;;;24.08;;
70342;SDS011;57767;42.068;24.752;2022-12-11T02:49:42;45.85;;;24.60;;
70342;SDS011;57767;42.068;24.752;2022-12-11T02:50:48;35.22;;;23.85;;
70342;SDS011;57767;42.068;24.752;2022-12-11T02:51:52;41.20;;;24.52;;
70342;SDS011;57767;42.068;24.752;2022-12-11T02:52:57;42.60;;;24.98;;
70342;SDS011;57767;42.068;24.752;2022-12-11T02:54:03;42.88;;;23.63;;
70342;SDS011;57767;42.068;24.752;2022-12-11T02:55:08;46.22;;;26.45;;
70342;SDS011;57767;42.068;24.752;2022-12-11T02:56:20;42.28;;;25.55;;
70342;SDS011;57767;42.068;24.752;2022-12-11T02:57:35;44.53;;;25.35;;
70342;SDS011;57767;42.068;24.752;2022-12-11T02:58:45;42.35;;;24.50;;
70342;SDS011;57767;42.068;24.752;2022-12-11T02:59:55;49.22;;;24.13;;
70342;SDS011;57767;42.068;24.752;2022-12-11T03:00:57;40.65;;;25.23;;
70342;SDS011;57767;42.068;24.752;2022-12-11T03:01:59;40.38;;;25.95;;
70342;SDS011;57767;42.068;24.752;2022-12-11T03:03:01;50.67;;;26.20;;
70342;SDS011;57767;42.068;24.752;2022-12-11T03:04:03;40.70;;;25.15;;
70342;SDS011;57767;42.068;24.752;2022-12-11T03:05:05;42.08;;;25.83;;
70342;SDS011;57767;42.068;24.752;2022-12-11T03:06:08;44.95;;;23.88;;
70342;SDS011;57767;42.068;24.752;2022-12-11T03:07:22;38.30;;;23.85;;
70342;SDS011;57767;42.068;24.752;2022-12-11T03:08:26;42.08;;;22.88;;
70342;SDS011;57767;42.068;24.752;2022-12-11T03:09:28;38.70;;;21.70;;
70342;SDS011;57767;42.068;24.752;2022-12-11T03:10:30;38.85;;;22.85;;
70342;SDS011;57767;42.068;24.752;2022-12-11T03:11:31;43.47;;;22.05;;
70342;SDS011;57767;42.068;24.752;2022-12-11T03:12:35;37.85;;;21.80;;
70342;SDS011;57767;42.068;24.752;2022-12-11T03:13:39;33.83;;;19.77;;
70342;SDS011;57767;42.068;24.752;2022-12-11T03:14:43;39.47;;;21.27;;
70342;SDS011;57767;42.068;24.752;2022-12-11T03:17:07;33.55;;;19.48;;
70342;SDS011;57767;42.068;24.752;2022-12-11T03:19:36;35.05;;;19.35;;
70342;SDS011;57767;42.068;24.752;2022-12-11T03:20:51;30.60;;;18.67;;
70342;SDS011;57767;42.068;24.752;2022-12-11T03:22:09;31.38;;;17.27;;
70342;SDS011;57767;42.068;24.752;2022-12-11T03:23:18;28.77;;;17.02;;
70342;SDS011;57767;42.068;24.752;2022-12-11T03:25:50;27.17;;;15.55;;
70342;SDS011;57767;42.068;24.752;2022-12-11T03:27:00;32.72;;;16.50;;
70342;SDS011;57767;42.068;24.752;2022-12-11T03:28:12;29.75;;;17.23;;
70342;SDS011;57767;42.068;24.752;2022-12-11T03:29:21;30.92;;;18.75;;
70342;SDS011;57767;42.068;24.752;2022-12-11T03:30:25;31.55;;;18.20;;
70342;SDS011;57767;42.068;24.752;2022-12-11T03:31:34;40.33;;;17.35;;
70342;SDS011;57767;42.068;24.752;2022-12-11T03:32:44;31.83;;;17.42;;
70342;SDS011;57767;42.068;24.752;2022-12-11T03:33:50;37.53;;;16.83;;
70342;SDS011;57767;42.068;24.752;2022-12-11T03:34:58;35.90;;;17.20;;
70342;SDS011;57767;42.068;24.752;2022-12-11T03:36:30;32.63;;;17.23;;
70342;SDS011;57767;42.068;24.752;2022-12-11T03:37:32;31.38;;;17.05;;
70342;SDS011;57767;42.068;24.752;2022-12-11T03:38:40;30.65;;;16.83;;
70342;SDS011;57767;42.068;24.752;2022-12-11T03:39:50;27.05;;;15.90;;
70342;SDS011;57767;42.068;24.752;2022-12-11T03:40:55;29.30;;;15.85;;
70342;SDS011;57767;42.068;24.752;2022-12-11T03:42:02;35.22;;;16.85;;
70342;SDS011;57767;42.068;24.752;2022-12-11T03:43:07;32.13;;;16.35;;
70342;SDS011;57767;42.068;24.752;2022-12-11T03:44:11;27.80;;;14.70;;
70342;SDS011;57767;42.068;24.752;2022-12-11T03:45:13;33.08;;;14.82;;
70342;SDS011;57767;42.068;24.752;2022-12-11T03:46:18;25.30;;;14.25;;
70342;SDS011;57767;42.068;24.752;2022-12-11T03:47:22;33.35;;;14.43;;
70342;SDS011;57767;42.068;24.752;2022-12-11T03:48:29;25.98;;;13.15;;
70342;SDS011;57767;42.068;24.752;2022-12-11T03:49:36;22.42;;;13.07;;
70342;SDS011;57767;42.068;24.752;2022-12-11T03:50:40;25.10;;;13.32;;
70342;SDS011;57767;42.068;24.752;2022-12-11T03:51:44;25.48;;;13.70;;
70342;SDS011;57767;42.068;24.752;2022-12-11T03:52:48;26.73;;;13.30;;
70342;SDS011;57767;42.068;24.752;2022-12-11T03:53:51;25.80;;;13.60;;
70342;SDS011;57767;42.068;24.752;2022-12-11T03:54:53;23.90;;;13.32;;
70342;SDS011;57767;42.068;24.752;2022-12-11T03:56:01;32.22;;;15.30;;
70342;SDS011;57767;42.068;24.752;2022-12-11T03:57:04;29.63;;;16.20;;
70342;SDS011;57767;42.068;24.752;2022-12-11T03:58:08;28.95;;;17.48;;
70342;SDS011;57767;42.068;24.752;2022-12-11T03:59:10;33.28;;;16.42;;
70342;SDS011;57767;42.068;24.752;2022-12-11T04:00:13;27.50;;;15.73;;
70342;SDS011;57767;42.068;24.752;2022-12-11T04:01:17;29.30;;;15.40;;
70342;SDS011;57767;42.068;24.752;2022-12-11T04:02:18;27.60;;;14.55;;
70342;SDS011;57767;42.068;24.752;2022-12-11T04:03:20;30.17;;;14.25;;
70342;SDS011;57767;42.068;24.752;2022-12-11T04:04:22;29.00;;;13.20;;
70342;SDS011;57767;42.068;24.752;2022-12-11T04:05:24;26.73;;;11.80;;
70342;SDS011;57767;42.068;24.752;2022-12-11T04:06:26;24.60;;;12.35;;
70342;SDS011;57767;42.068;24.752;2022-12-11T04:07:27;26.08;;;11.45;;
70342;SDS011;57767;42.068;24.752;2022-12-11T04:08:29;22.23;;;12.05;;
70342;SDS011;57767;42.068;24.752;2022-12-11T04:09:31;23.38;;;11.70;;
70342;SDS011;57767;42.068;24.752;2022-12-11T04:10:33;30.30;;;12.23;;
70342;SDS011;57767;42.068;24.752;2022-12-11T04:11:34;26.00;;;11.77;;
70342;SDS011;57767;42.068;24.752;2022-12-11T04:12:36;28.73;;;12.20;;
70342;SDS011;57767;42.068;24.752;2022-12-11T04:13:38;23.38;;;11.93;;
70342;SDS011;57767;42.068;24.752;2022-12-11T04:14:41;18.17;;;11.48;;
70342;SDS011;57767;42.068;24.752;2022-12-11T04:16:01;23.25;;;11.73;;
70342;SDS011;57767;42.068;24.752;2022-12-11T04:17:03;24.67;;;11.32;;
70342;SDS011;57767;42.068;24.752;2022-12-11T04:18:06;24.50;;;12.32;;
70342;SDS011;57767;42.068;24.752;2022-12-11T04:19:27;16.52;;;10.35;;
70342;SDS011;57767;42.068;24.752;2022-12-11T04:20:47;27.38;;;11.52;;
70342;SDS011;57767;42.068;24.752;2022-12-11T04:22:11;16.85;;;8.60;;
70342;SDS011;57767;42.068;24.752;2022-12-11T04:23:32;17.35;;;9.90;;
70342;SDS011;57767;42.068;24.752;2022-12-11T04:24:53;18.48;;;8.93;;
70342;SDS011;57767;42.068;24.752;2022-12-11T04:26:02;19.90;;;9.13;;
70342;SDS011;57767;42.068;24.752;2022-12-11T04:27:15;14.43;;;8.88;;
70342;SDS011;57767;42.068;24.752;2022-12-11T04:29:38;17.23;;;7.13;;
70342;SDS011;57767;42.068;24.752;2022-12-11T04:30:39;12.52;;;6.93;;
70342;SDS011;57767;42.068;24.752;2022-12-11T04:31:41;19.35;;;7.68;;
70342;SDS011;57767;42.068;24.752;2022-12-11T04:32:43;17.05;;;7.30;;
70342;SDS011;57767;42.068;24.752;2022-12-11T04:33:45;17.67;;;7.00;;
70342;SDS011;57767;42.068;24.752;2022-12-11T04:34:47;13.63;;;6.53;;
70342;SDS011;57767;42.068;24.752;2022-12-11T04:35:49;14.52;;;6.55;;
70342;SDS011;57767;42.068;24.752;2022-12-11T04:36:51;14.23;;;6.28;;
70342;SDS011;57767;42.068;24.752;2022-12-11T04:37:52;13.38;;;6.15;;
70342;SDS011;57767;42.068;24.752;2022-12-11T04:38:54;12.75;;;5.13;;
70342;SDS011;57767;42.068;24.752;2022-12-11T04:39:56;13.02;;;5.22;;
70342;SDS011;57767;42.068;24.752;2022-12-11T04:41:05;17.27;;;5.72;;
70342;SDS011;57767;42.068;24.752;2022-12-11T04:42:08;13.25;;;4.82;;
70342;SDS011;57767;42.068;24.752;2022-12-11T04:43:10;13.77;;;6.18;;
70342;SDS011;57767;42.068;24.752;2022-12-11T04:44:11;20.27;;;8.70;;
70342;SDS011;57767;42.068;24.752;2022-12-11T04:45:13;18.20;;;10.13;;
70342;SDS011;57767;42.068;24.752;2022-12-11T04:46:17;21.55;;;11.27;;
70342;SDS011;57767;42.068;24.752;2022-12-11T04:47:21;26.65;;;10.93;;
70342;SDS011;57767;42.068;24.752;2022-12-11T04:48:23;21.75;;;11.57;;
70342;SDS011;57767;42.068;24.752;2022-12-11T04:49:25;21.38;;;11.85;;
70342;SDS011;57767;42.068;24.752;2022-12-11T04:50:26;20.35;;;11.82;;
70342;SDS011;57767;42.068;24.752;2022-12-11T04:51:28;28.15;;;11.77;;
70342;SDS011;57767;42.068;24.752;2022-12-11T04:52:30;19.58;;;11.50;;
70342;SDS011;57767;42.068;24.752;2022-12-11T04:53:32;23.27;;;11.85;;
70342;SDS011;57767;42.068;24.752;2022-12-11T04:54:34;22.20;;;11.88;;
70342;SDS011;57767;42.068;24.752;2022-12-11T04:55:36;22.85;;;10.95;;
70342;SDS011;57767;42.068;24.752;2022-12-11T04:56:39;23.75;;;11.57;;
70342;SDS011;57767;42.068;24.752;2022-12-11T04:57:41;22.73;;;11.57;;
70342;SDS011;57767;42.068;24.752;2022-12-11T04:58:43;25.30;;;12.13;;
70342;SDS011;57767;42.068;24.752;2022-12-11T04:59:45;17.40;;;11.38;;
70342;SDS011;57767;42.068;24.752;2022-12-11T05:00:48;24.42;;;10.63;;
70342;SDS011;57767;42.068;24.752;2022-12-11T05:01:50;15.43;;;10.00;;
70342;SDS011;57767;42.068;24.752;2022-12-11T05:02:52;21.63;;;11.25;;
70342;SDS011;57767;42.068;24.752;2022-12-11T05:03:54;28.67;;;12.75;;
70342;SDS011;57767;42.068;24.752;2022-12-11T05:04:56;21.77;;;12.65;;
70342;SDS011;57767;42.068;24.752;2022-12-11T05:05:58;24.30;;;11.30;;
70342;SDS011;57767;42.068;24.752;2022-12-11T05:06:59;21.27;;;11.80;;
70342;SDS011;57767;42.068;24.752;2022-12-11T05:08:01;20.73;;;12.32;;
70342;SDS011;57767;42.068;24.752;2022-12-11T05:09:04;24.17;;;14.10;;
70342;SDS011;57767;42.068;24.752;2022-12-11T05:10:05;22.15;;;11.23;;
70342;SDS011;57767;42.068;24.752;2022-12-11T05:11:09;18.30;;;11.07;;
70342;SDS011;57767;42.068;24.752;2022-12-11T05:12:12;27.65;;;11.43;;
70342;SDS011;57767;42.068;24.752;2022-12-11T05:13:14;20.35;;;10.95;;
70342;SDS011;57767;42.068;24.752;2022-12-11T05:14:15;19.48;;;10.30;;
70342;SDS011;57767;42.068;24.752;2022-12-11T05:15:17;23.17;;;11.57;;
70342;SDS011;57767;42.068;24.752;2022-12-11T05:16:19;24.80;;;13.10;;
70342;SDS011;57767;42.068;24.752;2022-12-11T05:17:21;17.20;;;10.35;;
70342;SDS011;57767;42.068;24.752;2022-12-11T05:18:23;18.63;;;10.15;;
70342;SDS011;57767;42.068;24.752;2022-12-11T05:19:25;18.13;;;9.07;;
70342;SDS011;57767;42.068;24.752;2022-12-11T05:20:27;16.70;;;9.25;;
70342;SDS011;57767;42.068;24.752;2022-12-11T05:21:29;14.73;;;9.35;;
70342;SDS011;57767;42.068;24.752;2022-12-11T05:22:35;18.17;;;10.68;;
70342;SDS011;57767;42.068;24.752;2022-12-11T05:23:38;15.70;;;10.05;;
70342;SDS011;57767;42.068;24.752;2022-12-11T05:24:40;18.55;;;9.15;;
70342;SDS011;57767;42.068;24.752;2022-12-11T05:25:42;19.00;;;9.40;;
70342;SDS011;57767;42.068;24.752;2022-12-11T05:26:43;18.83;;;9.82;;
70342;SDS011;57767;42.068;24.752;2022-12-11T05:27:45;19.42;;;10.27;;
70342;SDS011;57767;42.068;24.752;2022-12-11T05:28:50;18.10;;;9.77;;
70342;SDS011;57767;42.068;24.752;2022-12-11T05:29:54;20.38;;;9.38;;
70342;SDS011;57767;42.068;24.752;2022-12-11T05:31:00;11.10;;;8.45;;
70342;SDS011;57767;42.068;24.752;2022-12-11T05:32:06;19.95;;;8.77;;
70342;SDS011;57767;42.068;24.752;2022-12-11T05:33:08;17.83;;;9.02;;
70342;SDS011;57767;42.068;24.752;2022-12-11T05:34:09;19.13;;;9.52;;
70342;SDS011;57767;42.068;24.752;2022-12-11T05:35:11;16.83;;;7.80;;
70342;SDS011;57767;42.068;24.752;2022-12-11T05:36:18;16.73;;;7.00;;
70342;SDS011;57767;42.068;24.752;2022-12-11T05:37:22;17.63;;;8.43;;
70342;SDS011;57767;42.068;24.752;2022-12-11T05:38:24;15.98;;;7.03;;
70342;SDS011;57767;42.068;24.752;2022-12-11T05:39:26;11.32;;;6.65;;
70342;SDS011;57767;42.068;24.752;2022-12-11T05:40:27;12.45;;;7.05;;
70342;SDS011;57767;42.068;24.752;2022-12-11T05:41:29;12.07;;;6.20;;
70342;SDS011;57767;42.068;24.752;2022-12-11T05:42:33;11.80;;;5.10;;
70342;SDS011;57767;42.068;24.752;2022-12-11T05:43:35;10.10;;;4.43;;
70342;SDS011;57767;42.068;24.752;2022-12-11T05:44:37;10.70;;;5.45;;
70342;SDS011;57767;42.068;24.752;2022-12-11T05:45:39;16.48;;;8.10;;
70342;SDS011;57767;42.068;24.752;2022-12-11T05:46:40;12.48;;;6.95;;
70342;SDS011;57767;42.068;24.752;2022-12-11T05:47:42;14.20;;;8.35;;
70342;SDS011;57767;42.068;24.752;2022-12-11T05:48:45;14.35;;;8.93;;
70342;SDS011;57767;42.068;24.752;2022-12-11T05:49:48;17.85;;;8.57;;
70342;SDS011;57767;42.068;24.752;2022-12-11T05:50:56;13.63;;;8.85;;
70342;SDS011;57767;42.068;24.752;2022-12-11T05:51:59;13.60;;;8.95;;
70342;SDS011;57767;42.068;24.752;2022-12-11T05:53:01;14.82;;;8.45;;
70342;SDS011;57767;42.068;24.752;2022-12-11T05:54:03;13.50;;;8.13;;
70342;SDS011;57767;42.068;24.752;2022-12-11T05:55:05;13.80;;;6.75;;
70342;SDS011;57767;42.068;24.752;2022-12-11T05:56:09;14.07;;;5.95;;
70342;SDS011;57767;42.068;24.752;2022-12-11T05:57:13;9.90;;;6.15;;
70342;SDS011;57767;42.068;24.752;2022-12-11T05:58:15;14.52;;;6.72;;
70342;SDS011;57767;42.068;24.752;2022-12-11T05:59:16;15.85;;;6.47;;
70342;SDS011;57767;42.068;24.752;2022-12-11T06:00:20;12.82;;;6.03;;
70342;SDS011;57767;42.068;24.752;2022-12-11T06:02:30;10.88;;;5.85;;
70342;SDS011;57767;42.068;24.752;2022-12-11T06:03:34;13.55;;;5.85;;
70342;SDS011;57767;42.068;24.752;2022-12-11T06:04:36;13.52;;;6.03;;
70342;SDS011;57767;42.068;24.752;2022-12-11T06:05:38;15.32;;;6.65;;
70342;SDS011;57767;42.068;24.752;2022-12-11T06:06:41;13.05;;;6.78;;
70342;SDS011;57767;42.068;24.752;2022-12-11T06:07:44;16.33;;;7.80;;
70342;SDS011;57767;42.068;24.752;2022-12-11T06:08:48;14.63;;;7.82;;
70342;SDS011;57767;42.068;24.752;2022-12-11T06:09:51;13.68;;;8.25;;
70342;SDS011;57767;42.068;24.752;2022-12-11T06:10:53;17.55;;;9.45;;
70342;SDS011;57767;42.068;24.752;2022-12-11T06:11:54;21.85;;;9.98;;
70342;SDS011;57767;42.068;24.752;2022-12-11T06:12:56;23.52;;;10.13;;
70342;SDS011;57767;42.068;24.752;2022-12-11T06:13:59;22.00;;;9.80;;
70342;SDS011;57767;42.068;24.752;2022-12-11T06:15:01;19.17;;;10.48;;
70342;SDS011;57767;42.068;24.752;2022-12-11T06:16:05;20.10;;;9.63;;
70342;SDS011;57767;42.068;24.752;2022-12-11T06:17:08;17.48;;;8.73;;
70342;SDS011;57767;42.068;24.752;2022-12-11T06:18:10;13.93;;;8.73;;
70342;SDS011;57767;42.068;24.752;2022-12-11T06:19:13;15.77;;;8.13;;
70342;SDS011;57767;42.068;24.752;2022-12-11T06:20:17;15.32;;;7.13;;
70342;SDS011;57767;42.068;24.752;2022-12-11T06:21:23;15.13;;;7.65;;
70342;SDS011;57767;42.068;24.752;2022-12-11T06:22:26;16.33;;;8.32;;
70342;SDS011;57767;42.068;24.752;2022-12-11T06:23:28;17.35;;;8.48;;
70342;SDS011;57767;42.068;24.752;2022-12-11T06:24:30;16.58;;;8.23;;
70342;SDS011;57767;42.068;24.752;2022-12-11T06:25:32;20.38;;;9.00;;
70342;SDS011;57767;42.068;24.752;2022-12-11T06:26:33;17.52;;;9.07;;
70342;SDS011;57767;42.068;24.752;2022-12-11T06:27:35;19.40;;;8.93;;
70342;SDS011;57767;42.068;24.752;2022-12-11T06:28:37;14.82;;;8.38;;
70342;SDS011;57767;42.068;24.752;2022-12-11T06:29:39;17.88;;;8.10;;
70342;SDS011;57767;42.068;24.752;2022-12-11T06:30:41;16.58;;;8.30;;
70342;SDS011;57767;42.068;24.752;2022-12-11T06:31:42;14.88;;;7.95;;
70342;SDS011;57767;42.068;24.752;2022-12-11T06:32:44;14.02;;;8.30;;
70342;SDS011;57767;42.068;24.752;2022-12-11T06:33:46;13.25;;;7.93;;
70342;SDS011;57767;42.068;24.752;2022-12-11T06:34:48;14.70;;;7.88;;
70342;SDS011;57767;42.068;24.752;2022-12-11T06:35:50;16.50;;;8.80;;
70342;SDS011;57767;42.068;24.752;2022-12-11T06:36:52;15.10;;;7.68;;
70342;SDS011;57767;42.068;24.752;2022-12-11T06:37:54;13.98;;;7.85;;